X  SluitMETAR luchtvaart weer gegevens      EHRD Rotterdam The Hague Airport

Temperatuur

6°C Temperatuur

4°C Dauwpunt

87% Vochtigheid



Wind

29 KM/U

18 MPH

 8 M/S

16 KTS



130°
Zuid Oost
Huidig weer

Veel verspreide wolken Veel verspreide wolken
Luchtdruk 975.92 (hPa) - 28.82 (in)
Zicht 6.2 (mi) - 10 (km)
Vliegveld
Vliegveld code EHRD

Locatie Rotterdam The Hague Airport 30 (km)

Metar:
EHRD 040355Z AUTO 13016KT 100V180 9999 SCT015CB SCT017 OVC020 06/04 Q0976 NOSIG

Tijd: 04-12-2020 04:55